Time;durP1;ratioP1;P1;durP2;ratioP2;P2;SDS_P1;SDS_P2;PMS_P1;PMS_P2;Temp;Humidity;BMP_temperature;BMP_pressure;BME280_temperature;BME280_humidity;BME280_pressure;Samples;Min_cycle;Max_cycle;Signal;HPM_P1;HPM_P2
2021/01/24 00:01:55;;;;;;;2.90;2.70;;;2.90;99.90;;;;;;5064105;28;20937;-80
2021/01/24 00:04:21;;;;;;;2.17;1.97;;;2.90;99.90;;;;;;5064546;28;20259;-80
2021/01/24 00:06:47;;;;;;;2.60;2.40;;;2.90;99.90;;;;;;5061831;28;20191;-79
2021/01/24 00:09:12;;;;;;;3.10;2.90;;;2.90;99.90;;;;;;5067496;28;20711;-79
2021/01/24 00:11:38;;;;;;;2.60;2.40;;;2.90;99.90;;;;;;5066454;28;20562;-79
2021/01/24 00:14:03;;;;;;;2.90;2.70;;;2.80;99.90;;;;;;5068851;28;20193;-79
2021/01/24 00:16:29;;;;;;;2.80;2.70;;;2.80;99.90;;;;;;5065993;28;20209;-79
2021/01/24 00:18:54;;;;;;;2.50;2.30;;;2.80;99.90;;;;;;5068559;28;20624;-79
2021/01/24 00:21:20;;;;;;;3.03;2.60;;;2.80;99.90;;;;;;5063831;28;20722;-79
2021/01/24 00:23:45;;;;;;;3.07;2.87;;;2.90;99.90;;;;;;5065230;28;20213;-80
2021/01/24 00:26:11;;;;;;;2.80;2.70;;;2.80;99.90;;;;;;5065921;28;20300;-79
2021/01/24 00:28:36;;;;;;;3.20;3.00;;;2.80;99.90;;;;;;5064769;28;20179;-79
2021/01/24 00:31:02;;;;;;;3.00;2.80;;;2.80;99.90;;;;;;5065037;28;20192;-79
2021/01/24 00:33:27;;;;;;;2.33;2.23;;;2.80;99.90;;;;;;5064871;28;20560;-79
2021/01/24 00:35:53;;;;;;;3.17;2.97;;;2.80;99.90;;;;;;5063847;28;20205;-79
2021/01/24 00:38:18;;;;;;;3.53;3.23;;;2.70;99.90;;;;;;5064550;28;20410;-79
2021/01/24 00:40:44;;;;;;;3.00;2.80;;;2.70;99.90;;;;;;5063283;28;20234;-79
2021/01/24 00:43:09;;;;;;;2.50;1.73;;;2.70;99.90;;;;;;5063331;28;20191;-79
2021/01/24 00:45:35;;;;;;;2.27;2.17;;;2.80;99.90;;;;;;5064356;28;20225;-79
2021/01/24 00:48:01;;;;;;;1.83;1.73;;;2.70;99.90;;;;;;5064661;28;20586;-79
2021/01/24 00:50:26;;;;;;;2.20;1.97;;;2.70;99.90;;;;;;5067281;28;20179;-79
2021/01/24 00:52:52;;;;;;;2.00;1.87;;;2.80;99.90;;;;;;5068437;28;20179;-79
2021/01/24 00:55:17;;;;;;;1.40;1.30;;;2.80;99.90;;;;;;5064577;28;20617;-78
2021/01/24 00:57:43;;;;;;;1.43;1.07;;;2.80;99.90;;;;;;5065640;28;20190;-79
2021/01/24 01:00:09;;;;;;;1.70;1.60;;;2.80;99.90;;;;;;5063804;28;20201;-78
2021/01/24 01:02:35;;;;;;;1.50;1.40;;;2.80;99.90;;;;;;5067597;28;20220;-77
2021/01/24 01:05:00;;;;;;;1.50;1.40;;;2.80;99.90;;;;;;5063313;28;20507;-78
2021/01/24 01:07:26;;;;;;;1.20;1.20;;;2.80;99.90;;;;;;5067324;28;20174;-79
2021/01/24 01:09:51;;;;;;;1.23;1.23;;;2.80;99.90;;;;;;5065416;28;20307;-78
2021/01/24 01:12:17;;;;;;;1.27;1.27;;;2.90;99.90;;;;;;5068328;28;20404;-79
2021/01/24 01:14:42;;;;;;;1.57;1.47;;;2.80;99.90;;;;;;5063452;28;20262;-78
2021/01/24 01:17:08;;;;;;;1.20;1.10;;;2.80;99.90;;;;;;5064846;28;20183;-78
2021/01/24 01:19:33;;;;;;;1.27;1.17;;;2.80;99.90;;;;;;5062808;28;20185;-79
2021/01/24 01:21:59;;;;;;;1.37;1.27;;;2.80;99.90;;;;;;5066441;28;20650;-79
2021/01/24 01:24:24;;;;;;;1.13;1.03;;;2.80;99.90;;;;;;5064496;28;20687;-79
2021/01/24 01:26:50;;;;;;;1.17;1.17;;;2.80;99.90;;;;;;5065896;28;20203;-79
2021/01/24 01:29:15;;;;;;;1.00;1.00;;;2.80;99.90;;;;;;5063332;28;20186;-78
2021/01/24 01:31:41;;;;;;;1.53;1.43;;;2.70;99.90;;;;;;5068407;28;20674;-79
2021/01/24 01:34:06;;;;;;;1.00;1.00;;;2.70;99.90;;;;;;5062025;28;20578;-79
2021/01/24 01:36:33;;;;;;;1.00;1.00;;;2.60;99.90;;;;;;5068849;28;20203;-79
2021/01/24 01:39:00;;;;;;;1.20;1.10;;;2.60;99.90;;;;;;5061833;28;20238;-79
2021/01/24 01:41:32;;;;;;;1.00;0.90;;;2.60;99.90;;;;;;5066724;28;20457;-79
2021/01/24 01:43:59;;;;;;;2.40;0.73;;;2.60;99.90;;;;;;5063041;28;20505;-80
2021/01/24 01:46:27;;;;;;;0.70;0.70;;;2.60;99.90;;;;;;5065615;28;20450;-79
2021/01/24 01:48:53;;;;;;;1.33;1.23;;;2.60;99.90;;;;;;5066014;28;20446;-79
2021/01/24 01:51:19;;;;;;;1.10;1.00;;;2.50;99.90;;;;;;5063961;28;20875;-79
2021/01/24 01:53:45;;;;;;;1.07;0.97;;;2.50;99.90;;;;;;5065336;28;20793;-78
2021/01/24 01:56:12;;;;;;;1.17;1.17;;;2.50;99.90;;;;;;5063056;28;20436;-79
2021/01/24 01:58:38;;;;;;;1.50;1.40;;;2.50;99.90;;;;;;5065189;28;20397;-78
2021/01/24 02:01:10;;;;;;;1.20;1.20;;;2.50;99.90;;;;;;5060775;28;20428;-78
2021/01/24 02:04:11;;;;;;;1.20;1.00;;;2.50;99.90;;;;;;5065737;28;20483;-78
2021/01/24 02:07:10;;;;;;;1.50;1.33;;;2.50;99.90;;;;;;5063400;28;20955;-78
2021/01/24 02:09:59;;;;;;;1.40;1.30;;;2.60;99.90;;;;;;5065753;28;20425;-79
2021/01/24 02:12:34;;;;;;;1.70;1.60;;;2.60;99.90;;;;;;5062765;28;20478;-79
2021/01/24 02:15:07;;;;;;;2.83;1.67;;;2.60;99.90;;;;;;5063028;28;20433;-78
2021/01/24 02:17:37;;;;;;;1.10;1.00;;;2.60;99.90;;;;;;5061940;28;20428;-78
2021/01/24 02:20:18;;;;;;;1.10;0.73;;;2.60;99.90;;;;;;5065521;28;20409;-78
2021/01/24 02:22:47;;;;;;;0.70;0.70;;;2.60;99.90;;;;;;5065099;28;20401;-78
2021/01/24 02:25:17;;;;;;;0.40;0.40;;;2.60;99.90;;;;;;5065207;28;20526;-78
2021/01/24 02:27:57;;;;;;;0.43;0.43;;;2.70;99.90;;;;;;5064086;28;20405;-79
2021/01/24 02:30:34;;;;;;;0.40;0.40;;;2.60;99.90;;;;;;5066740;28;20495;-79
2021/01/24 02:33:02;;;;;;;0.50;0.50;;;2.60;99.90;;;;;;5061052;28;20497;-78
2021/01/24 02:35:31;;;;;;;0.30;0.30;;;2.60;99.90;;;;;;5066196;28;20423;-79
2021/01/24 02:38:00;;;;;;;0.40;0.40;;;2.50;99.90;;;;;;5062990;28;20429;-78
2021/01/24 02:40:28;;;;;;;0.50;0.30;;;2.50;99.90;;;;;;5064332;28;20425;-78
2021/01/24 02:42:56;;;;;;;0.40;0.40;;;2.40;99.90;;;;;;5060308;28;20434;-78
2021/01/24 02:45:22;;;;;;;0.30;0.30;;;2.40;99.90;;;;;;5062994;28;20544;-79
2021/01/24 02:47:49;;;;;;;0.40;0.40;;;2.40;99.90;;;;;;5061084;28;20398;-78
2021/01/24 02:50:16;;;;;;;0.40;0.40;;;2.30;99.90;;;;;;5062586;28;20907;-78
2021/01/24 02:52:43;;;;;;;0.70;0.50;;;2.40;99.90;;;;;;5063753;28;20594;-79
2021/01/24 02:55:09;;;;;;;0.80;0.50;;;2.30;99.90;;;;;;5063899;28;20541;-78
2021/01/24 02:57:37;;;;;;;0.50;0.50;;;2.30;99.90;;;;;;5064289;28;20794;-79
2021/01/24 03:00:04;;;;;;;1.03;0.70;;;2.30;99.90;;;;;;5064252;28;20441;-78
2021/01/24 03:02:30;;;;;;;0.70;0.57;;;2.30;99.90;;;;;;5060477;28;20950;-78
2021/01/24 03:04:55;;;;;;;0.60;0.60;;;2.30;99.90;;;;;;5066364;28;20497;-78
2021/01/24 03:07:21;;;;;;;0.60;0.60;;;2.20;99.90;;;;;;5061221;28;20183;-78
2021/01/24 03:09:47;;;;;;;0.77;0.77;;;2.20;99.90;;;;;;5064840;28;20181;-78
2021/01/24 03:12:13;;;;;;;1.07;0.63;;;2.20;99.90;;;;;;5062440;28;20177;-78
2021/01/24 03:14:39;;;;;;;0.90;0.90;;;2.20;99.90;;;;;;5063379;28;20223;-78
2021/01/24 03:17:05;;;;;;;1.27;1.20;;;2.20;99.90;;;;;;5064035;28;20465;-79
2021/01/24 03:19:32;;;;;;;1.20;1.10;;;2.20;99.90;;;;;;5063498;28;20242;-79
2021/01/24 03:22:00;;;;;;;1.10;1.10;;;2.20;99.90;;;;;;5062582;28;20419;-79
2021/01/24 03:24:26;;;;;;;1.30;1.20;;;2.20;99.90;;;;;;5062571;28;20546;-78
2021/01/24 03:26:52;;;;;;;1.03;1.03;;;2.20;99.90;;;;;;5062484;28;20505;-78
2021/01/24 03:29:19;;;;;;;3.23;1.33;;;2.10;99.90;;;;;;5064920;28;20427;-78
2021/01/24 03:31:45;;;;;;;1.73;1.60;;;2.10;99.90;;;;;;5062436;28;20544;-78
2021/01/24 03:34:20;;;;;;;2.30;2.10;;;2.10;99.90;;;;;;5063806;28;20398;-78
2021/01/24 03:36:49;;;;;;;1.97;1.83;;;2.00;99.90;;;;;;5063692;28;20505;-78
2021/01/24 03:39:15;;;;;;;2.53;2.37;;;2.00;99.90;;;;;;5065572;28;20434;-78
2021/01/24 03:41:41;;;;;;;3.10;2.23;;;2.00;99.90;;;;;;5062051;28;20437;-78
2021/01/24 03:44:07;;;;;;;3.67;2.77;;;2.00;99.90;;;;;;5063653;28;20457;-78
2021/01/24 03:46:34;;;;;;;2.83;2.20;;;1.90;99.90;;;;;;5063450;28;20522;-78
2021/01/24 03:49:00;;;;;;;2.57;2.27;;;1.90;99.90;;;;;;5062027;28;20177;-77
2021/01/24 03:51:26;;;;;;;3.20;2.63;;;1.80;99.90;;;;;;5062225;28;20420;-78
2021/01/24 03:53:51;;;;;;;3.63;2.80;;;1.80;99.90;;;;;;5061432;28;20468;-78
2021/01/24 03:56:17;;;;;;;2.43;2.17;;;1.80;99.90;;;;;;5063098;28;20211;-78
2021/01/24 03:58:42;;;;;;;2.67;2.27;;;1.80;99.90;;;;;;5062086;28;20275;-78
2021/01/24 04:01:08;;;;;;;2.17;1.97;;;1.70;99.90;;;;;;5062077;28;20212;-78
2021/01/24 04:03:33;;;;;;;2.20;2.10;;;1.70;99.90;;;;;;5063021;28;20224;-78
2021/01/24 04:05:59;;;;;;;2.80;2.20;;;1.60;99.90;;;;;;5064266;28;20291;-78
2021/01/24 04:08:24;;;;;;;2.50;2.30;;;1.60;99.90;;;;;;5063194;28;20659;-78
2021/01/24 04:10:50;;;;;;;2.17;1.97;;;1.60;99.90;;;;;;5061754;28;20176;-78
2021/01/24 04:13:15;;;;;;;2.60;1.90;;;1.60;99.90;;;;;;5059646;28;20181;-78
2021/01/24 04:15:41;;;;;;;3.10;1.90;;;1.60;99.90;;;;;;5062266;28;20197;-78
2021/01/24 04:18:06;;;;;;;3.03;2.13;;;1.60;99.90;;;;;;5059837;28;20184;-78
2021/01/24 04:20:32;;;;;;;2.03;1.93;;;1.50;99.90;;;;;;5064368;28;20258;-78
2021/01/24 04:22:57;;;;;;;2.43;2.33;;;1.50;99.90;;;;;;5062433;28;20185;-79
2021/01/24 04:25:24;;;;;;;3.47;2.30;;;1.50;99.90;;;;;;5073418;28;20618;-78
2021/01/24 04:27:49;;;;;;;4.43;2.57;;;1.40;99.90;;;;;;5063305;28;20259;-78
2021/01/24 04:30:17;;;;;;;2.23;1.80;;;1.40;99.90;;;;;;5065990;28;20489;-79
2021/01/24 04:32:42;;;;;;;2.90;2.27;;;1.40;99.90;;;;;;5062253;28;20616;-78
2021/01/24 04:35:08;;;;;;;3.07;2.17;;;1.40;99.90;;;;;;5065819;28;20434;-78
2021/01/24 04:37:34;;;;;;;3.87;2.20;;;1.40;99.90;;;;;;5065255;28;20173;-78
2021/01/24 04:40:00;;;;;;;2.60;1.40;;;1.30;99.90;;;;;;5070116;28;20509;-78
2021/01/24 04:42:26;;;;;;;2.20;2.00;;;1.30;99.90;;;;;;5066081;28;20176;-78
2021/01/24 04:44:54;;;;;;;2.53;2.30;;;1.30;99.90;;;;;;5065666;28;20468;-78
2021/01/24 04:47:21;;;;;;;4.50;1.17;;;1.30;99.90;;;;;;5068961;28;20436;-78
2021/01/24 04:49:47;;;;;;;8.83;2.00;;;1.40;99.90;;;;;;5065399;28;20435;-78
2021/01/24 04:52:13;;;;;;;1.67;1.57;;;1.40;99.90;;;;;;5064161;28;20433;-78
2021/01/24 04:54:41;;;;;;;1.73;1.30;;;1.40;99.90;;;;;;5066989;28;20221;-78
2021/01/24 04:57:08;;;;;;;3.37;2.10;;;1.40;99.90;;;;;;5065098;28;20208;-78
2021/01/24 04:59:34;;;;;;;1.60;1.50;;;1.40;99.90;;;;;;5067011;28;20482;-78
2021/01/24 05:02:01;;;;;;;3.63;1.80;;;1.40;99.90;;;;;;5063390;28;20850;-78
2021/01/24 05:04:26;;;;;;;3.90;1.40;;;1.40;99.90;;;;;;5069597;28;20524;-79
2021/01/24 05:06:52;;;;;;;3.00;1.70;;;1.40;99.90;;;;;;5068067;28;20447;-78
2021/01/24 05:09:20;;;;;;;1.77;1.67;;;1.40;99.90;;;;;;5064778;28;20679;-78
2021/01/24 05:11:52;;;;;;;1.53;1.43;;;1.40;99.90;;;;;;5063123;28;20235;-78
2021/01/24 05:14:25;;;;;;;1.83;1.63;;;1.40;99.90;;;;;;5065999;28;20439;-78
2021/01/24 05:16:52;;;;;;;2.13;1.47;;;1.40;99.90;;;;;;5061973;28;20853;-78
2021/01/24 05:19:21;;;;;;;3.70;1.73;;;1.40;99.90;;;;;;5066513;28;20452;-78
2021/01/24 05:21:47;;;;;;;1.60;1.50;;;1.40;99.90;;;;;;5067272;28;20462;-78
2021/01/24 05:24:16;;;;;;;1.63;1.53;;;1.40;99.90;;;;;;5065016;28;20467;-78
2021/01/24 05:26:43;;;;;;;1.43;1.30;;;1.40;99.90;;;;;;5066232;28;20459;-78
2021/01/24 05:29:20;;;;;;;5.63;1.73;;;1.40;99.90;;;;;;5060996;28;20438;-78
2021/01/24 05:31:46;;;;;;;3.27;1.80;;;1.40;99.90;;;;;;5068063;28;20780;-78
2021/01/24 05:34:15;;;;;;;2.70;1.73;;;1.40;99.90;;;;;;5062079;28;20454;-78
2021/01/24 05:36:42;;;;;;;3.87;1.67;;;1.40;99.90;;;;;;5068033;28;20467;-78
2021/01/24 05:39:08;;;;;;;1.63;1.53;;;1.40;99.90;;;;;;5063248;28;20899;-79
2021/01/24 05:41:34;;;;;;;2.97;2.07;;;1.40;99.90;;;;;;5065759;28;20451;-78
2021/01/24 05:44:00;;;;;;;1.90;1.80;;;1.40;99.90;;;;;;5063217;28;20453;-78
2021/01/24 05:46:33;;;;;;;6.37;2.10;;;1.30;99.90;;;;;;5066642;28;20990;-78
2021/01/24 05:48:59;;;;;;;2.83;2.63;;;1.30;99.90;;;;;;5064941;28;20178;-78
2021/01/24 05:51:26;;;;;;;2.30;2.20;;;1.10;99.90;;;;;;5063879;28;20481;-78
2021/01/24 05:53:55;;;;;;;3.30;3.00;;;1.00;99.90;;;;;;5063734;28;20406;-78
2021/01/24 05:56:20;;;;;;;2.73;2.10;;;1.00;99.90;;;;;;5063568;28;20464;-78
2021/01/24 05:58:54;;;;;;;3.37;2.27;;;0.90;99.90;;;;;;5063687;28;20822;-81
2021/01/24 06:01:20;;;;;;;2.43;2.23;;;0.80;99.90;;;;;;5063767;28;20213;-79
2021/01/24 06:03:46;;;;;;;2.23;2.07;;;0.90;99.90;;;;;;5071917;28;20448;-79
2021/01/24 06:06:11;;;;;;;4.63;2.40;;;0.90;99.90;;;;;;5064083;28;20523;-79
2021/01/24 06:08:38;;;;;;;3.60;2.47;;;1.00;99.90;;;;;;5070902;28;20491;-78
2021/01/24 06:11:05;;;;;;;3.97;2.17;;;1.00;99.90;;;;;;5060868;28;20209;-79
2021/01/24 06:13:33;;;;;;;5.00;2.47;;;1.00;99.90;;;;;;5068849;28;20444;-79
2021/01/24 06:16:06;;;;;;;2.60;2.40;;;0.90;99.90;;;;;;5066088;28;20436;-79
2021/01/24 06:18:55;;;;;;;2.50;2.30;;;0.90;99.90;;;;;;5064105;28;20888;-79
2021/01/24 06:21:33;;;;;;;3.60;2.50;;;0.80;99.90;;;;;;5064214;28;20425;-79
2021/01/24 06:24:08;;;;;;;7.10;2.20;;;0.80;99.90;;;;;;5063598;28;20455;-79
2021/01/24 06:26:42;;;;;;;4.20;3.00;;;0.70;99.90;;;;;;5055717;28;20503;-79
2021/01/24 06:29:10;;;;;;;2.43;2.20;;;0.70;99.90;;;;;;5066611;28;20969;-79
2021/01/24 06:31:48;;;;;;;2.57;2.37;;;0.70;99.90;;;;;;5072656;28;20415;-79
2021/01/24 06:34:13;;;;;;;3.20;2.47;;;0.80;99.90;;;;;;5066297;28;20444;-79
2021/01/24 06:37:09;;;;;;;2.77;2.50;;;0.70;99.90;;;;;;5059972;28;20482;-79
2021/01/24 06:39:54;;;;;;;2.40;2.20;;;0.70;99.90;;;;;;5068422;28;20176;-80
2021/01/24 06:42:48;;;;;;;2.80;2.60;;;0.80;99.90;;;;;;5069045;28;20416;-79
2021/01/24 06:45:26;;;;;;;5.33;2.47;;;0.70;99.90;;;;;;5067924;28;20449;-79
2021/01/24 06:47:56;;;;;;;1.90;1.80;;;0.80;99.90;;;;;;5066751;28;20902;-79
2021/01/24 06:50:48;;;;;;;2.20;1.97;;;0.70;99.90;;;;;;5064434;28;20509;-79
2021/01/24 06:53:25;;;;;;;3.40;2.60;;;0.80;99.90;;;;;;5060739;28;20446;-78
2021/01/24 06:55:52;;;;;;;4.00;1.93;;;0.80;99.90;;;;;;5069304;28;20948;-78
2021/01/24 06:58:31;;;;;;;5.73;2.13;;;0.80;99.90;;;;;;5074124;28;20419;-79
2021/01/24 07:01:22;;;;;;;3.77;2.00;;;0.80;99.90;;;;;;5072285;28;20437;-75
2021/01/24 07:04:24;;;;;;;2.63;1.47;;;0.80;99.90;;;;;;5062417;28;20821;-75
2021/01/24 07:06:55;;;;;;;4.40;2.30;;;0.80;99.90;;;;;;5067669;28;20824;-75
2021/01/24 07:09:27;;;;;;;5.60;1.80;;;0.90;99.90;;;;;;5064779;28;20826;-76
2021/01/24 07:12:02;;;;;;;1.60;1.50;;;0.90;99.90;;;;;;5066466;28;20411;-73
2021/01/24 07:14:37;;;;;;;2.23;1.63;;;1.00;99.90;;;;;;5058897;28;20400;-75
2021/01/24 07:17:07;;;;;;;3.80;1.03;;;1.00;99.90;;;;;;5058731;28;20479;-75
2021/01/24 07:19:37;;;;;;;6.27;2.00;;;1.10;99.90;;;;;;5059122;28;20408;-75
2021/01/24 07:22:04;;;;;;;4.20;1.30;;;1.10;99.90;;;;;;5058079;28;20955;-76
2021/01/24 07:24:30;;;;;;;2.90;1.20;;;1.10;99.90;;;;;;5060950;28;20464;-76
2021/01/24 07:26:56;;;;;;;5.53;2.30;;;1.10;99.90;;;;;;5057823;28;20464;-76
2021/01/24 07:29:22;;;;;;;3.17;1.53;;;1.10;99.90;;;;;;5059985;28;20659;-77
2021/01/24 07:31:49;;;;;;;2.30;1.60;;;1.10;99.90;;;;;;5061024;28;20957;-76
2021/01/24 07:34:18;;;;;;;2.83;1.97;;;1.10;99.90;;;;;;5060188;28;20427;-75
2021/01/24 07:36:47;;;;;;;4.00;1.87;;;1.10;99.90;;;;;;5061177;28;20466;-75
2021/01/24 07:39:12;;;;;;;2.07;1.87;;;1.10;99.90;;;;;;5063164;28;20466;-75
2021/01/24 07:41:38;;;;;;;1.90;1.70;;;1.10;99.90;;;;;;5057887;28;20900;-75
2021/01/24 07:44:04;;;;;;;2.73;2.10;;;1.10;99.90;;;;;;5094615;28;20212;-76
2021/01/24 07:46:29;;;;;;;2.07;1.80;;;1.10;99.90;;;;;;5062773;28;20196;-76
2021/01/24 07:48:55;;;;;;;2.70;1.77;;;1.10;99.90;;;;;;5061800;28;20476;-77
2021/01/24 07:51:21;;;;;;;3.60;2.07;;;1.20;99.90;;;;;;5060488;28;20435;-76
2021/01/24 07:53:47;;;;;;;1.63;1.37;;;1.30;99.90;;;;;;5064927;28;20204;-75
2021/01/24 07:56:13;;;;;;;1.60;1.50;;;1.40;99.90;;;;;;5062085;28;20825;-75
2021/01/24 07:58:38;;;;;;;2.50;1.60;;;1.40;99.90;;;;;;5064940;28;20188;-75
2021/01/24 08:01:04;;;;;;;2.10;2.00;;;1.50;99.90;;;;;;5062031;28;20193;-76
2021/01/24 08:03:32;;;;;;;2.07;1.87;;;1.60;99.90;;;;;;5064199;28;20272;-77
2021/01/24 08:06:08;;;;;;;2.72;1.85;;;1.70;99.90;;;;;;5063027;28;20416;-75
2021/01/24 08:08:36;;;;;;;2.90;1.87;;;1.80;99.90;;;;;;5060705;28;20579;-76
2021/01/24 08:11:02;;;;;;;1.30;1.20;;;1.90;99.90;;;;;;5064198;28;20909;-75
2021/01/24 08:13:28;;;;;;;2.17;1.20;;;1.90;99.90;;;;;;5062216;28;20437;-76
2021/01/24 08:15:55;;;;;;;3.85;2.30;;;1.90;99.90;;;;;;5063125;28;20463;-75
2021/01/24 08:18:22;;;;;;;1.63;1.53;;;1.90;99.90;;;;;;5065206;28;20245;-76
2021/01/24 08:20:49;;;;;;;2.60;1.50;;;1.90;99.90;;;;;;5065573;28;20519;-75
2021/01/24 08:23:14;;;;;;;1.17;1.07;;;2.00;99.90;;;;;;5063729;28;20545;-77
2021/01/24 08:25:40;;;;;;;1.10;1.10;;;1.90;99.90;;;;;;5064131;28;21003;-75
2021/01/24 08:28:07;;;;;;;1.90;1.43;;;2.10;99.90;;;;;;5062610;28;20409;-75
2021/01/24 08:30:40;;;;;;;1.37;1.33;;;2.10;99.90;;;;;;5061649;28;20177;-75
2021/01/24 08:33:11;;;;;;;5.23;1.70;;;2.10;99.90;;;;;;5063464;28;20426;-74
2021/01/24 08:35:37;;;;;;;1.50;1.40;;;2.10;99.90;;;;;;5064285;28;20478;-75
2021/01/24 08:38:03;;;;;;;2.10;1.00;;;2.10;99.90;;;;;;5067863;28;21289;-75
2021/01/24 08:40:36;;;;;;;2.67;1.47;;;2.20;99.90;;;;;;5063663;28;20669;-75
2021/01/24 08:43:03;;;;;;;1.33;1.23;;;2.40;99.90;;;;;;5066226;28;20203;-75
2021/01/24 08:45:28;;;;;;;2.43;1.87;;;2.50;99.90;;;;;;5067189;28;20517;-75
2021/01/24 08:48:02;;;;;;;1.80;1.43;;;2.80;99.90;;;;;;5066913;28;20524;-75
2021/01/24 08:50:31;;;;;;;2.53;1.40;;;3.00;99.90;;;;;;5064940;28;20212;-75
2021/01/24 08:52:58;;;;;;;2.60;1.43;;;3.20;99.90;;;;;;5066381;28;20408;-75
2021/01/24 08:55:25;;;;;;;2.87;1.60;;;3.10;99.90;;;;;;5064723;28;21849;-75
2021/01/24 08:57:50;;;;;;;2.60;1.33;;;3.00;99.90;;;;;;5065909;28;20440;-76
2021/01/24 09:00:17;;;;;;;2.08;1.60;;;2.80;99.90;;;;;;5067061;28;20441;-76
2021/01/24 09:02:43;;;;;;;3.90;1.00;;;2.70;99.90;;;;;;5063904;28;20183;-76
2021/01/24 09:05:14;;;;;;;3.03;2.37;;;2.60;99.90;;;;;;5067221;28;20841;-75
2021/01/24 09:07:47;;;;;;;1.63;1.50;;;2.50;99.90;;;;;;5065143;28;20180;-77
2021/01/24 09:10:28;;;;;;;3.20;1.70;;;2.40;99.90;;;;;;5063394;28;20436;-75
2021/01/24 09:12:56;;;;;;;1.97;1.80;;;2.40;99.90;;;;;;5063326;28;20414;-76
2021/01/24 09:15:23;;;;;;;2.13;1.50;;;2.40;99.90;;;;;;5063756;28;20858;-75
2021/01/24 09:17:51;;;;;;;4.07;2.13;;;2.40;99.90;;;;;;5067760;28;20434;-76
2021/01/24 09:20:17;;;;;;;1.40;1.30;;;2.40;99.90;;;;;;5092875;28;20410;-75
2021/01/24 09:22:43;;;;;;;1.60;1.50;;;2.20;99.90;;;;;;5064531;28;20425;-78
2021/01/24 09:25:09;;;;;;;1.87;1.63;;;2.20;99.90;;;;;;5062533;28;20453;-75
2021/01/24 09:27:35;;;;;;;3.03;1.70;;;2.20;99.90;;;;;;5064782;28;20200;-75
2021/01/24 09:30:03;;;;;;;6.87;2.07;;;2.10;99.90;;;;;;5066054;28;20415;-75
2021/01/24 09:32:28;;;;;;;2.97;1.57;;;2.10;99.90;;;;;;5060310;28;20403;-75
2021/01/24 09:34:54;;;;;;;1.93;1.83;;;2.00;99.90;;;;;;5062383;28;20504;-74
2021/01/24 09:37:19;;;;;;;3.77;2.50;;;2.00;99.90;;;;;;5061866;28;20580;-75
2021/01/24 09:39:45;;;;;;;2.30;2.10;;;1.90;99.90;;;;;;5061244;28;20180;-77
2021/01/24 09:42:11;;;;;;;4.00;1.90;;;1.90;99.90;;;;;;5066076;28;20183;-76
2021/01/24 09:44:36;;;;;;;2.07;1.90;;;1.90;99.90;;;;;;5064537;28;20197;-77
2021/01/24 09:47:02;;;;;;;2.60;1.97;;;1.80;99.90;;;;;;5063612;28;20294;-78
2021/01/24 09:49:27;;;;;;;2.27;1.57;;;1.80;99.90;;;;;;5063336;28;20222;-75
2021/01/24 09:51:53;;;;;;;1.90;1.50;;;1.80;99.90;;;;;;5062233;28;20266;-77
2021/01/24 09:54:18;;;;;;;4.00;1.90;;;1.90;99.90;;;;;;5066020;28;20655;-77
2021/01/24 09:56:45;;;;;;;3.27;2.30;;;1.80;99.90;;;;;;5068070;28;20658;-76
2021/01/24 09:59:11;;;;;;;3.97;2.40;;;1.80;99.90;;;;;;5060565;28;20191;-76
2021/01/24 10:01:37;;;;;;;1.63;1.50;;;1.90;99.90;;;;;;5064547;28;20435;-77
2021/01/24 10:04:03;;;;;;;3.90;1.80;;;1.90;99.90;;;;;;5063663;28;20467;-75
2021/01/24 10:06:29;;;;;;;2.40;1.50;;;2.00;99.90;;;;;;5066365;28;20194;-75
2021/01/24 10:08:54;;;;;;;2.53;2.33;;;2.10;99.90;;;;;;5061191;28;20944;-75
2021/01/24 10:11:21;;;;;;;3.93;1.70;;;2.10;99.90;;;;;;5064095;28;20181;-76
2021/01/24 10:13:47;;;;;;;7.33;2.47;;;2.30;99.90;;;;;;5060048;28;20608;-75
2021/01/24 10:16:13;;;;;;;2.37;2.23;;;2.40;99.90;;;;;;5066286;28;20459;-76
2021/01/24 10:18:38;;;;;;;2.00;1.90;;;2.40;99.90;;;;;;5063672;28;20438;-76
2021/01/24 10:21:05;;;;;;;2.83;2.47;;;2.40;99.90;;;;;;5060343;28;20191;-78
2021/01/24 10:23:30;;;;;;;2.50;2.30;;;2.40;99.90;;;;;;5061568;28;20207;-76
2021/01/24 10:25:56;;;;;;;3.07;1.70;;;2.50;99.90;;;;;;5059148;28;21420;-76
2021/01/24 10:28:23;;;;;;;2.03;1.93;;;2.60;99.90;;;;;;5065716;28;20189;-75
2021/01/24 10:30:49;;;;;;;2.70;2.10;;;2.60;99.90;;;;;;5060721;28;20431;-77
2021/01/24 10:33:15;;;;;;;1.90;1.80;;;2.60;99.90;;;;;;5060637;28;20882;-76
2021/01/24 10:35:42;;;;;;;5.07;3.63;;;2.60;99.90;;;;;;5066069;28;20470;-76
2021/01/24 10:38:08;;;;;;;2.83;1.70;;;2.60;99.90;;;;;;5064641;28;20651;-77
2021/01/24 10:40:34;;;;;;;2.90;2.07;;;2.70;99.90;;;;;;5069672;28;20434;-77
2021/01/24 10:43:02;;;;;;;1.27;1.17;;;3.00;99.90;;;;;;5064242;28;20319;-76
2021/01/24 10:45:28;;;;;;;1.53;1.43;;;3.10;99.90;;;;;;5072298;28;20473;-76
2021/01/24 10:47:53;;;;;;;1.70;1.60;;;3.30;99.90;;;;;;5067473;28;20439;-76
2021/01/24 10:50:19;;;;;;;1.70;1.60;;;3.50;99.90;;;;;;5064997;28;20833;-76
2021/01/24 10:52:45;;;;;;;2.90;1.50;;;3.60;99.90;;;;;;5067061;28;20192;-77
2021/01/24 10:55:11;;;;;;;1.10;1.00;;;3.80;99.90;;;;;;5064024;28;20303;-75
2021/01/24 10:57:38;;;;;;;1.63;1.23;;;3.80;99.90;;;;;;5068339;28;20186;-76
2021/01/24 11:00:08;;;;;;;1.10;1.00;;;3.80;99.90;;;;;;5069352;28;20622;-75
2021/01/24 11:02:33;;;;;;;1.40;1.30;;;3.90;99.90;;;;;;5064800;28;20427;-75
2021/01/24 11:04:59;;;;;;;1.17;1.10;;;3.90;99.90;;;;;;5065312;28;20973;-75
2021/01/24 11:07:25;;;;;;;1.40;1.30;;;3.90;99.90;;;;;;5061895;28;20561;-77
2021/01/24 11:09:51;;;;;;;1.60;1.07;;;4.10;99.90;;;;;;5069728;28;20176;-76
2021/01/24 11:12:16;;;;;;;2.30;2.13;;;4.30;99.90;;;;;;5064968;28;20490;-75
2021/01/24 11:14:42;;;;;;;1.30;1.20;;;4.40;99.90;;;;;;5067389;28;20189;-77
2021/01/24 11:17:08;;;;;;;1.57;1.03;;;4.80;99.90;;;;;;5063924;28;20622;-74
2021/01/24 11:19:36;;;;;;;1.60;1.50;;;5.00;99.90;;;;;;5067082;28;20195;-75
2021/01/24 11:22:01;;;;;;;2.20;1.40;;;5.20;99.90;;;;;;5066380;28;20537;-75
2021/01/24 11:24:27;;;;;;;1.97;1.87;;;5.00;99.90;;;;;;5068864;28;20986;-75
2021/01/24 11:26:53;;;;;;;1.40;1.03;;;4.90;99.90;;;;;;5067604;28;20607;-74
2021/01/24 11:29:19;;;;;;;1.03;0.97;;;4.70;99.90;;;;;;5062770;28;20633;-74
2021/01/24 11:31:44;;;;;;;2.50;1.33;;;4.50;99.90;;;;;;5067384;28;20919;-75
2021/01/24 11:34:11;;;;;;;1.43;1.33;;;4.40;99.90;;;;;;5066696;28;20426;-77
2021/01/24 11:36:36;;;;;;;1.57;1.47;;;4.40;99.90;;;;;;5068083;28;20232;-77
2021/01/24 11:39:02;;;;;;;3.80;1.63;;;4.50;99.90;;;;;;5062627;28;20474;-75
2021/01/24 11:41:28;;;;;;;1.83;1.40;;;4.60;99.90;;;;;;5090191;28;20191;-75
2021/01/24 11:43:53;;;;;;;1.40;1.30;;;4.80;99.90;;;;;;5069319;28;20464;-74
2021/01/24 11:46:19;;;;;;;1.37;1.27;;;4.80;99.90;;;;;;5065201;28;20201;-76
2021/01/24 11:48:44;;;;;;;1.83;1.30;;;4.70;99.90;;;;;;5067468;28;20315;-74
2021/01/24 11:51:10;;;;;;;1.97;1.40;;;4.80;99.90;;;;;;5062950;28;20233;-75
2021/01/24 11:53:37;;;;;;;2.60;0.93;;;4.90;99.90;;;;;;5092779;28;20180;-74
2021/01/24 11:56:04;;;;;;;1.57;1.33;;;4.90;99.90;;;;;;5062754;28;20296;-73
2021/01/24 11:58:30;;;;;;;3.10;1.87;;;4.60;99.90;;;;;;5064610;28;20421;-77
2021/01/24 12:00:55;;;;;;;1.87;1.73;;;4.60;99.90;;;;;;5067391;28;20542;-74
2021/01/24 12:03:21;;;;;;;2.40;1.37;;;4.40;99.90;;;;;;5064918;28;20556;-77
2021/01/24 12:05:46;;;;;;;1.30;1.20;;;4.20;99.90;;;;;;5062370;28;20291;-75
2021/01/24 12:08:12;;;;;;;2.57;1.70;;;4.00;99.90;;;;;;5064761;28;20188;-75
2021/01/24 12:10:37;;;;;;;1.30;1.20;;;4.00;99.90;;;;;;5061895;28;20648;-75
2021/01/24 12:13:04;;;;;;;1.73;1.60;;;3.80;99.90;;;;;;5060564;28;20547;-75
2021/01/24 12:15:29;;;;;;;1.43;1.33;;;3.70;99.90;;;;;;5061853;28;20198;-75
2021/01/24 12:17:55;;;;;;;0.90;0.90;;;3.70;99.90;;;;;;5060000;28;20506;-75
2021/01/24 12:20:20;;;;;;;1.80;1.47;;;3.80;99.90;;;;;;5061349;28;20190;-75
2021/01/24 12:22:46;;;;;;;1.40;1.30;;;3.70;99.90;;;;;;5064777;28;20234;-75
2021/01/24 12:25:12;;;;;;;3.33;1.70;;;3.50;99.90;;;;;;5062639;28;20225;-75
2021/01/24 12:27:37;;;;;;;3.07;1.80;;;3.60;99.90;;;;;;5059597;28;20215;-77
2021/01/24 12:30:05;;;;;;;1.73;1.43;;;3.60;99.90;;;;;;5060087;28;20178;-75
2021/01/24 12:32:30;;;;;;;1.90;1.80;;;3.50;99.90;;;;;;5062457;28;20263;-75
2021/01/24 12:34:56;;;;;;;9.07;1.87;;;3.60;99.90;;;;;;5059284;28;20533;-76
2021/01/24 12:37:22;;;;;;;2.07;1.40;;;3.70;99.90;;;;;;5059807;28;20178;-75
2021/01/24 12:39:48;;;;;;;2.80;1.93;;;3.70;99.90;;;;;;5056977;28;20681;-77
2021/01/24 12:42:13;;;;;;;2.17;1.90;;;3.60;99.90;;;;;;5060494;28;20280;-75
2021/01/24 12:44:39;;;;;;;2.93;1.50;;;3.40;99.90;;;;;;5065408;28;20208;-75
2021/01/24 12:47:04;;;;;;;2.80;1.60;;;3.40;99.90;;;;;;5065528;28;20205;-76
2021/01/24 12:49:30;;;;;;;2.60;1.73;;;3.30;99.90;;;;;;5065295;28;20176;-76
2021/01/24 12:51:55;;;;;;;1.10;1.10;;;3.40;99.90;;;;;;5063003;28;20670;-75
2021/01/24 12:54:21;;;;;;;1.70;1.50;;;3.40;99.90;;;;;;5066334;28;20228;-75
2021/01/24 12:56:46;;;;;;;3.97;1.90;;;3.60;99.90;;;;;;5063841;28;20212;-76
2021/01/24 12:59:12;;;;;;;1.70;1.53;;;3.80;99.90;;;;;;5064782;28;20190;-75
2021/01/24 13:01:37;;;;;;;2.70;1.40;;;3.80;99.90;;;;;;5060340;28;20185;-75